Time;durP1;ratioP1;P1;durP2;ratioP2;P2;SDS_P1;SDS_P2;PMS_P1;PMS_P2;Temp;Humidity;BMP_temperature;BMP_pressure;BME280_temperature;BME280_humidity;BME280_pressure;Samples;Min_cycle;Max_cycle;Signal;HPM_P1;HPM_P2
2021/07/29 00:02:25;;;;;;;;;;;15.90;99.90;;;;;;5101467;28;20323;-82
2021/07/29 00:04:50;;;;;;;;;;;15.80;99.90;;;;;;5096086;28;19915;-84
2021/07/29 00:07:16;;;;;;;;;;;15.70;99.90;;;;;;5097747;28;19918;-79
2021/07/29 00:09:45;;;;;;;;;;;15.60;99.90;;;;;;5096370;28;19939;-81
2021/07/29 00:12:11;;;;;;;;;;;15.60;99.90;;;;;;5094860;28;19923;-83
2021/07/29 00:14:37;;;;;;;;;;;15.60;99.90;;;;;;5097142;28;19912;-83
2021/07/29 00:17:03;;;;;;;;;;;15.50;99.90;;;;;;5091007;28;20369;-82
2021/07/29 00:19:29;;;;;;;;;;;15.50;99.90;;;;;;5127222;27;19959;-81
2021/07/29 00:21:55;;;;;;;;;;;15.30;99.90;;;;;;5095420;28;19962;-82
2021/07/29 00:24:20;;;;;;;;;;;15.30;99.90;;;;;;5097047;28;19962;-83
2021/07/29 00:26:46;;;;;;;;;;;15.20;99.90;;;;;;5118337;27;19913;-79
2021/07/29 00:29:12;;;;;;;;;;;15.10;99.90;;;;;;5107526;27;19912;-82
2021/07/29 00:31:37;;;;;;;;;;;15.00;99.90;;;;;;5110220;28;19912;-83
2021/07/29 00:34:03;;;;;;;;;;;14.90;99.90;;;;;;5105122;28;20341;-81
2021/07/29 00:36:29;;;;;;;;;;;14.90;99.90;;;;;;5089685;28;20000;-84
2021/07/29 00:38:55;;;;;;;;;;;14.80;99.90;;;;;;5096158;28;19959;-83
2021/07/29 00:41:20;;;;;;;;;;;14.70;99.90;;;;;;5089311;28;19923;-79
2021/07/29 00:43:46;;;;;;;;;;;14.60;99.90;;;;;;5089651;28;19931;-85
2021/07/29 00:46:13;;;;;;;;;;;14.60;99.90;;;;;;5096281;28;20311;-82
2021/07/29 00:48:39;;;;;;;;;;;14.60;99.90;;;;;;5105887;28;19920;-86
2021/07/29 00:51:05;;;;;;;;;;;14.50;99.90;;;;;;5099724;28;19927;-86
2021/07/29 00:53:31;;;;;;;;;;;14.50;99.90;;;;;;5106288;28;19951;-82
2021/07/29 00:55:57;;;;;;;;;;;14.50;99.90;;;;;;5090493;28;19959;-82
2021/07/29 00:58:22;;;;;;;;;;;14.50;99.90;;;;;;5096341;28;19919;-80
2021/07/29 01:00:48;;;;;;;;;;;14.40;99.90;;;;;;5098601;28;19912;-87
2021/07/29 01:03:14;;;;;;;;;;;14.40;99.90;;;;;;5094818;28;20218;-83
2021/07/29 01:05:41;;;;;;;;;;;14.30;99.90;;;;;;5095269;28;19951;-84
2021/07/29 01:08:06;;;;;;;;;;;14.30;99.90;;;;;;5094412;28;19920;-88
2021/07/29 01:10:33;;;;;;;;;;;14.30;99.90;;;;;;5103588;28;19987;-83
2021/07/29 01:12:59;;;;;;;;;;;14.20;99.90;;;;;;5098637;28;19916;-84
2021/07/29 01:15:25;;;;;;;;;;;14.20;99.90;;;;;;5094145;28;19908;-84
2021/07/29 01:17:50;;;;;;;;;;;14.20;99.90;;;;;;5094994;28;19919;-83
2021/07/29 01:20:17;;;;;;;;;;;14.20;99.90;;;;;;5083066;28;19916;-83
2021/07/29 01:22:43;;;;;;;;;;;14.10;99.90;;;;;;5120016;27;19953;-82
2021/07/29 01:25:10;;;;;;;;;;;14.10;99.90;;;;;;5095709;28;19966;-86
2021/07/29 01:27:37;;;;;;;;;;;14.10;99.90;;;;;;5091804;28;19998;-82
2021/07/29 01:30:02;;;;;;;;;;;14.20;99.90;;;;;;5119395;27;19915;-78
2021/07/29 01:32:28;;;;;;;;;;;14.30;99.90;;;;;;5094201;28;19945;-81
2021/07/29 01:34:55;;;;;;;;;;;14.30;99.90;;;;;;5121444;27;19912;-81
2021/07/29 01:37:20;;;;;;;;;;;14.30;99.90;;;;;;5094089;28;19970;-79
2021/07/29 01:39:46;;;;;;;;;;;14.30;99.90;;;;;;5094741;28;20318;-82
2021/07/29 01:42:11;;;;;;;;;;;14.40;99.90;;;;;;5090928;28;20321;-83
2021/07/29 01:44:37;;;;;;;;;;;14.40;99.90;;;;;;5095545;28;19912;-81
2021/07/29 01:47:03;;;;;;;;;;;14.40;99.90;;;;;;5094370;28;20261;-84
2021/07/29 01:49:28;;;;;;;;;;;14.40;99.90;;;;;;5102601;28;20002;-79
2021/07/29 01:51:54;;;;;;;;;;;14.30;99.90;;;;;;5135338;27;20235;-81
2021/07/29 01:54:21;;;;;;;;;;;14.40;99.90;;;;;;5091627;28;20217;-82
2021/07/29 01:56:47;;;;;;;;;;;14.40;99.90;;;;;;5094839;28;20222;-81
2021/07/29 01:59:12;;;;;;;;;;;14.40;99.90;;;;;;5092535;28;19916;-78
2021/07/29 02:01:40;;;;;;;;;;;14.40;99.90;;;;;;5092856;28;19922;-81
2021/07/29 02:04:05;;;;;;;;;;;14.40;99.90;;;;;;5091839;28;19912;-82
2021/07/29 02:06:31;;;;;;;;;;;14.30;99.90;;;;;;5127185;27;19915;-81
2021/07/29 02:08:56;;;;;;;;;;;14.30;99.90;;;;;;5084941;28;20386;-81
2021/07/29 02:11:24;;;;;;;;;;;14.30;99.90;;;;;;5090020;28;19923;-81
2021/07/29 02:13:50;;;;;;;;;;;14.20;99.90;;;;;;5092281;28;20309;-82
2021/07/29 02:16:15;;;;;;;;;;;14.20;99.90;;;;;;5093027;28;20032;-81
2021/07/29 02:18:41;;;;;;;;;;;14.20;99.90;;;;;;5093941;28;19947;-81
2021/07/29 02:21:07;;;;;;;;;;;14.10;99.90;;;;;;5093519;28;19991;-81
2021/07/29 02:23:33;;;;;;;;;;;14.10;99.90;;;;;;5108002;28;19958;-82
2021/07/29 02:25:59;;;;;;;;;;;14.00;99.90;;;;;;5092834;28;19947;-82
2021/07/29 02:28:24;;;;;;;;;;;14.00;99.90;;;;;;5089172;28;19928;-82
2021/07/29 02:30:50;;;;;;;;;;;14.00;99.90;;;;;;5091302;28;20315;-82
2021/07/29 02:33:15;;;;;;;;;;;14.00;99.90;;;;;;5097802;28;19911;-83
2021/07/29 02:35:41;;;;;;;;;;;14.00;99.90;;;;;;5149319;27;19964;-84
2021/07/29 02:38:07;;;;;;;;;;;14.00;99.90;;;;;;5096719;28;19961;-83
2021/07/29 02:40:32;;;;;;;;;;;13.90;99.90;;;;;;5094324;28;19927;-84
2021/07/29 02:42:58;;;;;;;;;;;13.90;99.90;;;;;;5092913;28;19916;-82
2021/07/29 02:45:23;;;;;;;;;;;13.90;99.90;;;;;;5095077;28;19912;-83
2021/07/29 02:47:50;;;;;;;;;;;13.90;99.90;;;;;;5093603;28;19920;-82
2021/07/29 02:50:16;;;;;;;;;;;13.80;99.90;;;;;;5093909;28;19966;-83
2021/07/29 02:52:41;;;;;;;;;;;13.80;99.90;;;;;;5093008;28;20263;-84
2021/07/29 02:55:07;;;;;;;;;;;13.80;99.90;;;;;;5089190;28;19919;-82
2021/07/29 02:57:33;;;;;;;;;;;13.90;99.90;;;;;;5092842;28;20379;-82
2021/07/29 02:59:59;;;;;;;;;;;13.80;99.90;;;;;;5093383;28;19916;-86
2021/07/29 03:02:25;;;;;;;;;;;13.80;99.90;;;;;;5094483;28;19969;-84
2021/07/29 03:04:50;;;;;;;;;;;13.80;99.90;;;;;;5089369;28;19963;-87
2021/07/29 03:07:16;;;;;;;;;;;13.80;99.90;;;;;;5085565;28;19908;-86
2021/07/29 03:09:41;;;;;;;;;;;13.70;99.90;;;;;;5094370;28;19908;-87
2021/07/29 03:12:07;;;;;;;;;;;13.70;99.90;;;;;;5094702;28;19916;-85
2021/07/29 03:14:32;;;;;;;;;;;13.70;99.90;;;;;;5093803;28;20260;-85
2021/07/29 03:16:58;;;;;;;;;;;13.70;99.90;;;;;;5093934;28;19908;-85
2021/07/29 03:19:23;;;;;;;;;;;13.70;99.90;;;;;;5093274;28;19916;-86
2021/07/29 03:21:49;;;;;;;;;;;13.70;99.90;;;;;;5093429;28;19923;-83
2021/07/29 03:24:14;;;;;;;;;;;13.70;99.90;;;;;;5094231;28;19916;-86
2021/07/29 03:26:40;;;;;;;;;;;13.70;99.90;;;;;;5093322;28;19994;-83
2021/07/29 03:29:06;;;;;;;;;;;13.70;99.90;;;;;;5093811;28;19923;-83
2021/07/29 03:31:31;;;;;;;;;;;13.70;99.90;;;;;;5090909;28;19923;-83
2021/07/29 03:33:57;;;;;;;;;;;13.70;99.90;;;;;;5141576;27;19908;-84
2021/07/29 03:36:22;;;;;;;;;;;13.70;99.90;;;;;;5098308;28;20001;-85
2021/07/29 03:38:48;;;;;;;;;;;13.60;99.90;;;;;;5104233;28;20287;-82
2021/07/29 03:41:14;;;;;;;;;;;13.70;99.90;;;;;;5132106;27;20215;-85
2021/07/29 03:43:39;;;;;;;;;;;13.70;99.90;;;;;;5105341;28;20002;-83
2021/07/29 03:46:05;;;;;;;;;;;13.70;99.90;;;;;;5105377;28;19912;-84
2021/07/29 03:48:30;;;;;;;;;;;13.70;99.90;;;;;;5104494;28;19924;-82
2021/07/29 03:50:56;;;;;;;;;;;13.70;99.90;;;;;;5101650;28;20324;-82
2021/07/29 03:53:22;;;;;;;;;;;13.70;99.90;;;;;;5099896;28;19916;-83
2021/07/29 03:55:47;;;;;;;;;;;13.60;99.90;;;;;;5106265;28;19964;-87
2021/07/29 03:58:13;;;;;;;;;;;13.60;99.90;;;;;;5107113;28;20010;-86
2021/07/29 04:00:38;;;;;;;;;;;13.70;99.90;;;;;;5140150;27;19915;-85
2021/07/29 04:03:04;;;;;;;;;;;13.70;99.90;;;;;;5106347;28;20230;-83
2021/07/29 04:05:30;;;;;;;;;;;13.80;99.90;;;;;;5109264;28;19912;-84
2021/07/29 04:07:55;;;;;;;;;;;13.80;99.90;;;;;;5104142;28;19918;-84
2021/07/29 04:10:21;;;;;;;;;;;13.80;99.90;;;;;;5097831;28;19955;-85
2021/07/29 04:12:47;;;;;;;;;;;13.80;99.90;;;;;;5104416;28;20319;-83
2021/07/29 04:15:12;;;;;;;;;;;13.80;99.90;;;;;;5100811;28;19912;-86
2021/07/29 04:17:39;;;;;;;;;;;13.90;99.90;;;;;;5107615;28;19912;-84
2021/07/29 04:20:05;;;;;;;;;;;13.90;99.90;;;;;;5103544;28;19962;-83
2021/07/29 04:22:31;;;;;;;;;;;13.90;99.90;;;;;;5111637;28;19943;-83
2021/07/29 04:24:57;;;;;;;;;;;13.90;99.90;;;;;;5101201;28;20427;-83
2021/07/29 04:27:22;;;;;;;;;;;13.90;99.90;;;;;;5096118;28;19908;-85
2021/07/29 04:29:48;;;;;;;;;;;13.90;99.90;;;;;;5095705;28;19912;-83
2021/07/29 04:32:15;;;;;;;;;;;13.90;99.90;;;;;;5097346;28;19946;-84
2021/07/29 04:34:40;;;;;;;;;;;14.00;99.90;;;;;;5096128;28;19915;-85
2021/07/29 04:37:08;;;;;;;;;;;13.90;99.90;;;;;;5139888;27;20253;-86
2021/07/29 04:39:34;;;;;;;;;;;13.90;99.90;;;;;;5098160;28;19923;-85
2021/07/29 04:41:59;;;;;;;;;;;14.00;99.90;;;;;;5096188;28;19912;-87
2021/07/29 04:44:25;;;;;;;;;;;14.10;99.90;;;;;;5138123;27;19916;-84
2021/07/29 04:46:51;;;;;;;;;;;14.20;99.90;;;;;;5100883;27;19911;-85
2021/07/29 04:49:20;;;;;;;;;;;14.20;99.90;;;;;;5106827;28;19924;-82
2021/07/29 04:51:47;;;;;;;;;;;14.30;99.90;;;;;;5110799;28;19919;-86
2021/07/29 04:54:13;;;;;;;;;;;14.30;99.90;;;;;;5105777;28;20007;-88
2021/07/29 04:56:39;;;;;;;;;;;14.40;99.90;;;;;;5103254;28;19919;-86
2021/07/29 04:59:05;;;;;;;;;;;14.50;99.90;;;;;;5101004;28;19913;-85
2021/07/29 05:01:30;;;;;;;;;;;14.60;99.90;;;;;;5101094;28;19919;-87
2021/07/29 05:04:00;;;;;;;;;;;14.70;99.90;;;;;;5130886;27;20310;-88
2021/07/29 05:06:26;;;;;;;;;;;14.80;99.90;;;;;;5095790;28;19927;-85
2021/07/29 05:08:52;;;;;;;;;;;14.90;99.90;;;;;;5095379;28;19920;-84
2021/07/29 05:11:17;;;;;;;;;;;14.80;99.90;;;;;;5100868;28;20365;-82
2021/07/29 05:13:43;;;;;;;;;;;14.90;99.90;;;;;;5102381;28;19927;-84
2021/07/29 05:16:09;;;;;;;;;;;14.90;99.90;;;;;;5101401;28;19989;-83
2021/07/29 05:18:35;;;;;;;;;;;15.00;99.90;;;;;;5096912;28;20333;-82
2021/07/29 05:21:04;;;;;;;;;;;15.00;99.90;;;;;;5096571;28;20212;-80
2021/07/29 05:23:30;;;;;;;;;;;15.00;99.90;;;;;;5097896;28;19928;-80
2021/07/29 05:25:56;;;;;;;;;;;14.90;99.90;;;;;;5095286;28;19912;-81
2021/07/29 05:28:21;;;;;;;;;;;14.80;99.90;;;;;;5091023;28;19920;-79
2021/07/29 05:30:47;;;;;;;;;;;14.80;99.90;;;;;;5087600;28;19973;-81
2021/07/29 05:33:12;;;;;;;;;;;14.80;99.90;;;;;;5090554;28;19998;-81
2021/07/29 05:35:38;;;;;;;;;;;14.60;99.90;;;;;;5122234;27;19959;-79
2021/07/29 05:38:04;;;;;;;;;;;14.50;99.90;;;;;;5087756;28;19923;-80
2021/07/29 05:40:29;;;;;;;;;;;14.50;99.90;;;;;;5091212;28;19912;-80
2021/07/29 05:42:55;;;;;;;;;;;14.60;99.90;;;;;;5095989;28;19920;-79
2021/07/29 05:45:20;;;;;;;;;;;14.60;99.90;;;;;;5094984;28;19912;-81
2021/07/29 05:47:46;;;;;;;;;;;14.60;99.90;;;;;;5088058;28;19987;-83
2021/07/29 05:50:12;;;;;;;;;;;14.70;99.90;;;;;;5089005;28;19912;-78
2021/07/29 05:52:37;;;;;;;;;;;14.80;99.90;;;;;;5090124;28;19920;-81
2021/07/29 05:55:04;;;;;;;;;;;14.90;99.90;;;;;;5127072;27;19920;-80
2021/07/29 05:57:29;;;;;;;;;;;14.90;99.90;;;;;;5091798;28;19920;-81
2021/07/29 05:59:55;;;;;;;;;;;14.90;99.90;;;;;;5094271;28;19930;-79
2021/07/29 06:02:20;;;;;;;;;;;14.90;99.90;;;;;;5091763;28;19912;-82
2021/07/29 06:04:46;;;;;;;;;;;15.00;99.90;;;;;;5096316;28;19912;-79
2021/07/29 06:07:12;;;;;;;;;;;15.00;99.90;;;;;;5091798;28;20008;-81
2021/07/29 06:09:37;;;;;;;;;;;15.00;99.90;;;;;;5087890;28;20017;-78
2021/07/29 06:12:03;;;;;;;;;;;15.10;99.90;;;;;;5105557;28;19971;-82
2021/07/29 06:14:29;;;;;;;;;;;15.10;99.90;;;;;;5111046;28;19937;-78
2021/07/29 06:16:54;;;;;;;;;;;15.20;99.90;;;;;;5110987;28;20263;-77
2021/07/29 06:19:29;;;;;;;;;;;15.30;99.90;;;;;;5102667;28;20558;-83
2021/07/29 06:21:56;;;;;;;;;;;15.30;99.90;;;;;;5120234;27;19923;-78
2021/07/29 06:24:22;;;;;;;;;;;15.30;99.90;;;;;;5098629;28;19919;-79
2021/07/29 06:26:49;;;;;;;;;;;15.40;99.90;;;;;;5095546;28;19912;-78
2021/07/29 06:29:14;;;;;;;;;;;15.50;99.90;;;;;;5099353;28;20002;-81
2021/07/29 06:31:40;;;;;;;;;;;15.50;99.90;;;;;;5093426;28;19998;-85
2021/07/29 06:34:06;;;;;;;;;;;15.40;99.90;;;;;;5094301;28;19919;-84
2021/07/29 06:36:31;;;;;;;;;;;15.50;99.90;;;;;;5094806;28;19912;-82
2021/07/29 06:38:59;;;;;;;;;;;15.50;99.90;;;;;;5091129;28;19926;-79
2021/07/29 06:41:25;;;;;;;;;;;15.60;99.90;;;;;;5094792;28;20020;-81
2021/07/29 06:43:51;;;;;;;;;;;15.70;99.90;;;;;;5094191;28;19919;-78
2021/07/29 06:46:16;;;;;;;;;;;15.80;99.90;;;;;;5093816;28;19912;-80
2021/07/29 06:48:42;;;;;;;;;;;15.80;99.90;;;;;;5094983;28;19971;-79
2021/07/29 06:51:08;;;;;;;;;;;15.90;99.90;;;;;;5101019;28;19941;-79
2021/07/29 06:53:37;;;;;;;;;;;15.90;99.90;;;;;;5100535;28;20768;-85
2021/07/29 06:56:03;;;;;;;;;;;15.90;99.90;;;;;;5093959;28;20015;-81
2021/07/29 06:58:29;;;;;;;;;;;15.90;99.90;;;;;;5092209;28;19912;-84
2021/07/29 07:00:59;;;;;;;;;;;16.00;99.90;;;;;;5087587;28;20214;-79
2021/07/29 07:03:26;;;;;;;;;;;16.10;99.90;;;;;;5089870;28;20296;-83
2021/07/29 07:05:51;;;;;;;;;;;16.20;99.90;;;;;;5094370;28;19918;-85
2021/07/29 07:08:17;;;;;;;;;;;16.10;99.90;;;;;;5088131;28;19920;-81
2021/07/29 07:10:43;;;;;;;;;;;16.20;99.90;;;;;;5091831;28;19912;-85
2021/07/29 07:13:09;;;;;;;;;;;16.20;99.90;;;;;;5095188;28;20010;-84
2021/07/29 07:15:34;;;;;;;;;;;16.30;99.90;;;;;;5095668;28;20007;-83
2021/07/29 07:18:00;;;;;;;;;;;16.30;99.90;;;;;;5093270;28;19916;-83
2021/07/29 07:20:25;;;;;;;;;;;16.30;99.90;;;;;;5096464;28;19920;-78
2021/07/29 07:22:52;;;;;;;;;;;16.30;99.90;;;;;;5091059;28;19919;-87
2021/07/29 07:25:17;;;;;;;;;;;16.30;99.90;;;;;;5097168;28;20003;-84
2021/07/29 07:27:43;;;;;;;;;;;16.30;99.90;;;;;;5096267;28;20015;-84
2021/07/29 07:30:09;;;;;;;;;;;16.50;99.90;;;;;;5096492;28;19912;-84
2021/07/29 07:32:34;;;;;;;;;;;16.70;99.90;;;;;;5102254;28;19981;-80
2021/07/29 07:35:00;;;;;;;;;;;16.90;99.90;;;;;;5095990;28;20023;-88
2021/07/29 07:37:26;;;;;;;;;;;17.00;99.90;;;;;;5098438;28;19918;-88
2021/07/29 07:39:51;;;;;;;;;;;17.00;99.90;;;;;;5099299;28;19915;-84
2021/07/29 07:42:17;;;;;;;;;;;17.00;99.90;;;;;;5101497;28;20295;-84
2021/07/29 07:44:42;;;;;;;;;;;16.90;99.90;;;;;;5091822;28;19919;-84
2021/07/29 07:47:08;;;;;;;;;;;16.90;99.90;;;;;;5090878;28;19977;-82
2021/07/29 07:49:34;;;;;;;;;;;16.90;99.90;;;;;;5100219;28;19927;-83
2021/07/29 07:52:00;;;;;;;;;;;16.80;99.90;;;;;;5099292;28;20023;-80
2021/07/29 07:54:26;;;;;;;;;;;16.80;99.90;;;;;;5101846;28;19967;-80
2021/07/29 07:56:52;;;;;;;;;;;16.90;99.90;;;;;;5103682;28;20006;-82
2021/07/29 07:59:18;;;;;;;;;;;17.00;99.90;;;;;;5144469;27;20011;-82
2021/07/29 08:01:44;;;;;;;;;;;17.20;99.90;;;;;;5097867;28;19918;-79
2021/07/29 08:04:10;;;;;;;;;;;17.30;99.90;;;;;;5112289;28;20212;-87
2021/07/29 08:06:36;;;;;;;;;;;17.30;99.90;;;;;;5110283;28;20323;-82
2021/07/29 08:09:03;;;;;;;;;;;17.50;99.90;;;;;;5140904;27;19941;-87
2021/07/29 08:11:28;;;;;;;;;;;17.70;99.90;;;;;;5105702;28;20194;-85
2021/07/29 08:13:54;;;;;;;;;;;18.00;99.90;;;;;;5111709;28;19911;-79
2021/07/29 08:16:20;;;;;;;;;;;18.30;99.90;;;;;;5105180;28;19964;-83
2021/07/29 08:18:45;;;;;;;;;;;18.40;99.90;;;;;;5135520;27;19916;-88
2021/07/29 08:21:12;;;;;;;;;;;18.40;99.90;;;;;;5101486;28;19915;-87
2021/07/29 08:23:39;;;;;;;;;;;18.10;99.90;;;;;;5097235;28;19919;-78
2021/07/29 08:26:05;;;;;;;;;;;17.80;99.90;;;;;;5099541;28;20532;-83
2021/07/29 08:28:31;;;;;;;;;;;17.60;99.90;;;;;;5095782;28;19928;-80
2021/07/29 08:30:57;;;;;;;;;;;17.40;99.90;;;;;;5104750;28;19916;-81
2021/07/29 08:33:22;;;;;;;;;;;17.30;99.90;;;;;;5097216;28;19920;-82
2021/07/29 08:35:48;;;;;;;;;;;17.20;99.90;;;;;;5090625;28;20053;-78
2021/07/29 08:38:14;;;;;;;;;;;17.50;99.90;;;;;;5098545;28;19919;-81
2021/07/29 08:40:40;;;;;;;;;;;18.00;99.90;;;;;;5097834;28;20002;-84
2021/07/29 08:43:07;;;;;;;;;;;18.30;99.90;;;;;;5091960;28;19926;-87
2021/07/29 08:45:35;;;;;;;;;;;18.50;99.90;;;;;;5097662;28;19916;-80
2021/07/29 08:48:02;;;;;;;;;;;18.80;99.90;;;;;;5090385;28;20269;-81
2021/07/29 08:50:27;;;;;;;;;;;18.80;99.90;;;;;;5090548;28;19966;-82
2021/07/29 08:52:53;;;;;;;;;;;18.70;99.90;;;;;;5086798;28;19924;-80
2021/07/29 08:55:19;;;;;;;;;;;18.70;99.90;;;;;;5123468;27;19912;-85
2021/07/29 08:57:44;;;;;;;;;;;18.90;99.90;;;;;;5092359;28;19922;-80
2021/07/29 09:00:11;;;;;;;;;;;19.10;99.90;;;;;;5097427;28;20249;-87
2021/07/29 09:02:36;;;;;;;;;;;19.30;99.90;;;;;;5095191;28;20002;-77
2021/07/29 09:05:08;;;;;;;;;;;19.30;99.90;;;;;;5098951;28;20287;-86
2021/07/29 09:07:34;;;;;;;;;;;19.20;99.90;;;;;;5087576;28;19920;-79
2021/07/29 09:09:59;;;;;;;;;;;18.90;99.90;;;;;;5088827;28;19919;-83
2021/07/29 09:12:25;;;;;;;;;;;18.80;99.90;;;;;;5088758;28;19920;-86
2021/07/29 09:14:52;;;;;;;;;;;18.70;99.90;;;;;;5095362;28;19912;-78
2021/07/29 09:17:18;;;;;;;;;;;18.80;99.90;;;;;;5092779;28;20245;-85
2021/07/29 09:19:48;;;;;;;;;;;18.90;99.90;;;;;;5093650;28;19917;-82
2021/07/29 09:22:13;;;;;;;;;;;19.20;99.90;;;;;;5095832;28;19923;-82
2021/07/29 09:24:57;;;;;;;;;;;19.40;99.90;;;;;;5097939;28;19912;-79
2021/07/29 09:27:23;;;;;;;;;;;19.40;99.90;;;;;;5109746;28;20214;-82
2021/07/29 09:29:49;;;;;;;;;;;19.30;99.90;;;;;;5105308;28;19916;-85
2021/07/29 09:32:16;;;;;;;;;;;19.50;99.90;;;;;;5086826;28;19920;-79
2021/07/29 09:34:52;;;;;;;;;;;19.70;99.90;;;;;;5092031;28;19912;-83
2021/07/29 09:37:19;;;;;;;;;;;19.90;99.90;;;;;;5091432;28;20031;-83
2021/07/29 09:39:46;;;;;;;;;;;20.10;99.90;;;;;;5096138;28;19943;-77
2021/07/29 09:42:22;;;;;;;;;;;20.20;99.90;;;;;;5096710;28;19912;-79
2021/07/29 09:44:52;;;;;;;;;;;20.30;99.90;;;;;;5091704;28;19924;-78
2021/07/29 09:47:18;;;;;;;;;;;20.40;99.90;;;;;;5093834;28;19966;-78
2021/07/29 09:49:44;;;;;;;;;;;20.50;99.90;;;;;;5106830;28;19920;-84
2021/07/29 09:52:10;;;;;;;;;;;20.50;99.90;;;;;;5098333;28;19916;-82
2021/07/29 09:54:36;;;;;;;;;;;20.50;99.90;;;;;;5100881;28;19953;-82
2021/07/29 09:57:02;;;;;;;;;;;20.50;99.90;;;;;;5103049;28;19973;-80
2021/07/29 09:59:27;;;;;;;;;;;20.50;99.90;;;;;;5093592;28;20362;-82
2021/07/29 10:01:54;;;;;;;;;;;20.70;99.90;;;;;;5127624;27;19912;-81
2021/07/29 10:04:43;;;;;;;;;;;20.70;99.90;;;;;;5095758;28;19926;-82
2021/07/29 10:07:17;;;;;;;;;;;20.70;99.90;;;;;;5090592;28;19912;-79
2021/07/29 10:09:45;;;;;;;;;;;20.60;99.90;;;;;;5105033;28;19908;-86
2021/07/29 10:12:13;;;;;;;;;;;20.70;99.90;;;;;;5105146;28;19911;-79
2021/07/29 10:14:49;;;;;;;;;;;20.70;99.90;;;;;;5135834;27;20333;-84
2021/07/29 10:17:15;;;;;;;;;;;20.70;99.90;;;;;;5140640;27;20215;-83
2021/07/29 10:19:59;;;;;;;;;;;20.80;99.90;;;;;;5098133;28;20079;-81
2021/07/29 10:22:24;;;;;;;;;;;20.90;99.90;;;;;;5085556;28;20006;-85
2021/07/29 10:24:51;;;;;;;;;;;21.10;99.90;;;;;;5110036;28;20011;-86
2021/07/29 10:27:16;;;;;;;;;;;21.00;99.90;;;;;;5103375;28;20245;-89
2021/07/29 10:29:42;;;;;;;;;;;21.00;99.90;;;;;;5106938;28;19911;-83
2021/07/29 10:32:11;;;;;;;;;;;21.00;99.90;;;;;;5093151;28;19916;-83
2021/07/29 10:34:37;;;;;;;;;;;21.10;99.90;;;;;;5085052;28;19953;-84
2021/07/29 10:37:04;;;;;;;;;;;21.10;99.90;;;;;;5099437;28;19912;-86
2021/07/29 10:39:30;;;;;;;;;;;21.10;99.90;;;;;;5107385;28;19911;-81
2021/07/29 10:41:56;;;;;;;;;;;21.20;99.90;;;;;;5084053;28;19912;-78
2021/07/29 10:44:31;;;;;;;;;;;21.40;99.90;;;;;;5104399;28;20222;-87
2021/07/29 10:46:56;;;;;;;;;;;21.40;99.90;;;;;;5098416;28;20002;-83
2021/07/29 10:49:22;;;;;;;;;;;21.40;99.90;;;;;;5109943;28;20421;-82
2021/07/29 10:52:14;;;;;;;;;;;21.40;99.90;;;;;;5115695;28;20010;-83
2021/07/29 10:54:43;;;;;;;;;;;21.50;99.90;;;;;;5093256;28;19951;-81
2021/07/29 10:57:10;;;;;;;;;;;21.60;99.90;;;;;;5099939;28;19916;-82
2021/07/29 10:59:36;;;;;;;;;;;21.60;99.90;;;;;;5098693;28;19916;-76
2021/07/29 11:02:08;;;;;;;;;;;21.50;99.90;;;;;;5100120;28;19919;-84
2021/07/29 11:05:03;;;;;;;;;;;21.40;99.90;;;;;;5109298;28;20322;-79
2021/07/29 11:07:30;;;;;;;;;;;21.40;99.90;;;;;;5105258;28;20001;-83
2021/07/29 11:10:03;;;;;;;;;;;21.50;99.90;;;;;;5101873;28;19912;-84
2021/07/29 11:12:30;;;;;;;;;;;21.70;99.90;;;;;;5104646;28;20275;-81
2021/07/29 11:14:57;;;;;;;;;;;21.70;99.90;;;;;;5103597;28;20306;-82
2021/07/29 11:17:22;;;;;;;;;;;21.80;99.90;;;;;;5115734;28;19908;-86
2021/07/29 11:19:51;;;;;;;;;;;21.70;99.90;;;;;;5103471;28;19915;-76
2021/07/29 11:22:17;;;;;;;;;;;21.60;99.90;;;;;;5147026;27;19916;-78
2021/07/29 11:24:43;;;;;;;;;;;21.80;99.90;;;;;;5112253;28;19923;-85
2021/07/29 11:27:13;;;;;;;;;;;21.80;99.90;;;;;;5112896;28;19916;-80
2021/07/29 11:29:54;;;;;;;;;;;21.80;99.90;;;;;;5108997;28;19943;-76
2021/07/29 11:32:21;;;;;;;;;;;21.90;99.90;;;;;;5107715;28;19922;-82
2021/07/29 11:34:55;;;;;;;;;;;22.00;99.90;;;;;;5115721;28;19957;-79
2021/07/29 11:37:20;;;;;;;;;;;22.10;99.90;;;;;;5109095;28;19927;-83
2021/07/29 11:39:47;;;;;;;;;;;22.10;99.90;;;;;;5100613;28;19920;-81
2021/07/29 11:42:12;;;;;;;;;;;21.90;99.90;;;;;;5083629;28;19922;-80
2021/07/29 11:44:38;;;;;;;;;;;21.70;99.90;;;;;;5085557;28;19912;-85
2021/07/29 11:47:04;;;;;;;;;;;21.70;99.90;;;;;;5081280;28;19935;-78
2021/07/29 11:49:30;;;;;;;;;;;21.80;99.90;;;;;;5084906;28;19920;-84
2021/07/29 11:52:05;;;;;;;;;;;21.90;99.90;;;;;;5095147;28;19915;-80
2021/07/29 11:54:31;;;;;;;;;;;21.90;99.90;;;;;;5095851;28;19934;-80
2021/07/29 11:56:58;;;;;;;;;;;21.80;99.90;;;;;;5084302;28;19913;-77
2021/07/29 11:59:24;;;;;;;;;;;21.80;99.90;;;;;;5097838;28;19943;-79
2021/07/29 12:01:50;;;;;;;;;;;21.90;99.90;;;;;;5096853;28;19916;-80
2021/07/29 12:04:16;;;;;;;;;;;22.00;99.90;;;;;;5094624;28;20221;-80
2021/07/29 12:06:42;;;;;;;;;;;22.10;99.90;;;;;;5094707;28;19912;-78
2021/07/29 12:09:08;;;;;;;;;;;22.10;99.90;;;;;;5093493;28;19916;-83
2021/07/29 12:11:34;;;;;;;;;;;22.10;99.90;;;;;;5094922;28;20260;-80
2021/07/29 12:14:00;;;;;;;;;;;22.00;99.90;;;;;;5097049;28;19915;-80
2021/07/29 12:16:42;;;;;;;;;;;22.00;99.90;;;;;;5095652;28;19916;-80
2021/07/29 12:19:07;;;;;;;;;;;21.90;99.90;;;;;;5096177;28;20329;-82
2021/07/29 12:21:33;;;;;;;;;;;21.90;99.10;;;;;;5096235;28;19970;-76
2021/07/29 12:23:59;;;;;;;;;;;21.90;99.90;;;;;;5095447;28;20234;-78
2021/07/29 12:26:24;;;;;;;;;;;22.00;99.90;;;;;;5080001;28;20015;-76
2021/07/29 12:28:50;;;;;;;;;;;22.10;99.90;;;;;;5082330;28;20004;-79
2021/07/29 12:31:20;;;;;;;;;;;22.10;99.60;;;;;;5095233;28;19908;-76
2021/07/29 12:33:49;;;;;;;;;;;22.10;99.30;;;;;;5095704;28;19918;-78
2021/07/29 12:36:15;;;;;;;;;;;22.00;98.60;;;;;;5096737;28;19923;-77
2021/07/29 12:38:40;;;;;;;;;;;21.90;99.90;;;;;;5093840;28;19908;-81
2021/07/29 12:41:06;;;;;;;;;;;21.90;99.70;;;;;;5109311;27;19958;-80
2021/07/29 12:43:33;;;;;;;;;;;21.90;99.70;;;;;;5096517;28;19912;-78
2021/07/29 12:46:00;;;;;;;;;;;21.80;98.80;;;;;;5099464;28;19915;-79
2021/07/29 12:48:26;;;;;;;;;;;21.90;99.20;;;;;;5099266;28;20002;-82
2021/07/29 12:50:53;;;;;;;;;;;21.90;99.20;;;;;;5101513;28;19966;-78
2021/07/29 12:53:19;;;;;;;;;;;21.90;99.10;;;;;;5107476;28;19927;-82
2021/07/29 12:55:45;;;;;;;;;;;22.00;99.10;;;;;;5106189;28;20315;-80
2021/07/29 12:58:11;;;;;;;;;;;22.00;98.90;;;;;;5107265;28;19964;-79
2021/07/29 13:00:38;;;;;;;;;;;22.00;98.80;;;;;;5098871;28;19916;-83
2021/07/29 13:03:15;;;;;;;;;;;22.00;99.10;;;;;;5101311;28;19916;-80
2021/07/29 13:05:41;;;;;;;;;;;22.10;99.10;;;;;;5096141;28;20199;-79
2021/07/29 13:08:06;;;;;;;;;;;22.00;99.30;;;;;;5092722;28;19969;-76
2021/07/29 13:10:32;;;;;;;;;;;21.90;99.20;;;;;;5095883;28;20299;-77
2021/07/29 13:12:58;;;;;;;;;;;21.90;99.90;;;;;;5095534;28;20035;-84
2021/07/29 13:15:25;;;;;;;;;;;22.00;99.90;;;;;;5092810;28;19919;-80
2021/07/29 13:17:50;;;;;;;;;;;22.00;99.50;;;;;;5088040;28;19912;-79
2021/07/29 13:20:16;;;;;;;;;;;22.00;99.90;;;;;;5095018;28;19927;-78
2021/07/29 13:22:42;;;;;;;;;;;21.90;99.80;;;;;;5088861;28;19960;-79
2021/07/29 13:25:08;;;;;;;;;;;21.90;99.90;;;;;;5094799;28;20428;-76
2021/07/29 13:27:33;;;;;;;;;;;21.80;99.50;;;;;;5091832;28;19916;-77
2021/07/29 13:29:59;;;;;;;;;;;21.90;99.90;;;;;;5089143;28;19912;-76
2021/07/29 13:32:24;;;;;;;;;;;22.10;99.90;;;;;;5090623;28;20199;-76
2021/07/29 13:34:50;;;;;;;;;;;22.20;99.80;;;;;;5089448;28;19916;-80
2021/07/29 13:37:15;;;;;;;;;;;22.20;98.70;;;;;;5094318;28;19912;-80
2021/07/29 13:39:43;;;;;;;;;;;22.10;98.90;;;;;;5088133;28;19927;-77
2021/07/29 13:42:08;;;;;;;;;;;22.20;99.50;;;;;;5091408;28;19955;-78
2021/07/29 13:44:41;;;;;;;;;;;22.30;99.90;;;;;;5095687;28;20291;-78
2021/07/29 13:47:07;;;;;;;;;;;22.30;99.40;;;;;;5090356;28;19957;-77
2021/07/29 13:49:32;;;;;;;;;;;22.10;98.80;;;;;;5088819;28;19924;-79
2021/07/29 13:51:58;;;;;;;;;;;21.90;99.90;;;;;;5092651;28;19957;-79
2021/07/29 13:54:25;;;;;;;;;;;21.70;99.90;;;;;;5093919;28;20575;-78
2021/07/29 13:56:51;;;;;;;;;;;21.60;99.90;;;;;;5097183;28;19961;-84
2021/07/29 13:59:17;;;;;;;;;;;21.80;99.90;;;;;;5092709;28;19916;-79
2021/07/29 14:01:42;;;;;;;;;;;21.70;99.90;;;;;;5091058;28;19912;-80
2021/07/29 14:04:08;;;;;;;;;;;21.50;99.90;;;;;;5093842;28;20289;-75
2021/07/29 14:06:33;;;;;;;;;;;21.50;99.90;;;;;;5093148;28;19916;-78
2021/07/29 14:08:59;;;;;;;;;;;21.60;99.90;;;;;;5094458;28;19984;-79
2021/07/29 14:11:24;;;;;;;;;;;21.60;99.90;;;;;;5093757;28;19920;-79
2021/07/29 14:13:50;;;;;;;;;;;21.70;99.30;;;;;;5088160;28;19916;-78